Terminal Aerodrome Forecast
Issued by NWS

Home | Current Version | Previous Version | Graphics & Text | Print | Product List | Glossary On
Versions: 1 2 3 4 5 6 7 8 9 10 11 12 13 14 15
546
FTUS43 KMPX 240258 AAA
TAFRWF
TAF AMD
KRWF 240258Z 2403/2424 09006KT 4SM -SHRA BR SCT015 OVC025
     FM240500 09005KT 2SM SHRA BR VCTS OVC008CB
     FM240800 05006KT 1SM SHRA BR OVC005
     FM241100 02008KT 2SM SHRA BR OVC008
     FM241600 01010KT 6SM -RA BR OVC012
     FM241900 01010KT P6SM VCSH BKN015=

USA.gov is the U.S. government's official web portal to all federal, state and local government web resources and services.